createdAt,value
2023-03-19T05:12:32.672Z,0.00
2023-03-19T05:15:32.749Z,0.00
2023-03-19T05:16:32.623Z,0.00
2023-03-19T05:17:32.612Z,0.00
2023-03-19T05:18:32.603Z,0.00
2023-03-19T05:19:32.594Z,0.00
2023-03-19T05:20:32.886Z,0.00
2023-03-19T05:21:32.586Z,0.00
2023-03-19T05:22:32.559Z,0.00
2023-03-19T05:24:32.537Z,0.00
2023-03-19T05:26:32.517Z,0.00
2023-03-19T05:28:32.503Z,0.00
2023-03-19T05:29:32.484Z,0.00
2023-03-19T05:31:32.542Z,0.00
2023-03-19T05:32:32.489Z,0.00
2023-03-19T05:33:32.476Z,0.00
2023-03-19T05:34:32.438Z,0.00
2023-03-19T05:35:32.460Z,0.00
2023-03-19T05:36:32.413Z,0.00
2023-03-19T05:37:32.418Z,0.00
2023-03-19T05:38:32.389Z,0.00
2023-03-19T05:39:32.379Z,0.00
2023-03-19T05:40:32.585Z,0.00
2023-03-19T05:43:32.336Z,0.00
2023-03-19T05:46:32.346Z,0.00
2023-03-19T05:47:32.293Z,0.00
2023-03-19T05:48:32.286Z,0.00
2023-03-19T05:49:32.273Z,0.00
2023-03-19T05:50:32.555Z,0.00
2023-03-19T05:52:32.239Z,0.00
2023-03-19T05:53:32.251Z,5.62
2023-03-19T05:54:32.221Z,5.62
2023-03-19T05:55:32.205Z,5.62
2023-03-19T05:56:32.221Z,5.62
2023-03-19T05:57:32.198Z,5.62
2023-03-19T06:00:32.442Z,11.25
2023-03-19T06:01:32.153Z,11.25
2023-03-19T06:02:32.147Z,16.87
2023-03-19T06:04:32.157Z,28.12
2023-03-19T06:05:32.113Z,28.12
2023-03-19T06:06:32.095Z,28.12
2023-03-19T06:08:32.075Z,28.12
2023-03-19T06:09:32.227Z,33.75
2023-03-19T06:10:32.389Z,39.37
2023-03-19T06:11:32.037Z,39.37
2023-03-19T06:13:32.021Z,39.37
2023-03-19T06:15:32.462Z,33.75
2023-03-19T06:16:32.095Z,33.75
2023-03-19T06:17:31.981Z,33.75
2023-03-19T06:18:31.966Z,28.12
2023-03-19T06:19:31.952Z,22.50
2023-03-19T06:20:32.430Z,22.50
2023-03-19T06:21:31.934Z,22.50
2023-03-19T06:22:31.923Z,28.12
2023-03-19T06:23:31.912Z,28.12
2023-03-19T06:24:31.906Z,28.12
2023-03-19T06:26:31.881Z,33.75
2023-03-19T06:27:31.870Z,39.37
2023-03-19T06:28:31.860Z,39.37
2023-03-19T06:30:32.039Z,45.00
2023-03-19T06:31:31.892Z,45.00
2023-03-19T06:32:31.885Z,50.62
2023-03-19T06:33:31.810Z,50.62
2023-03-19T06:34:31.801Z,50.62
2023-03-19T06:35:31.850Z,56.25
2023-03-19T06:36:31.786Z,56.25
2023-03-19T06:37:31.766Z,50.62
2023-03-19T06:38:31.763Z,50.62
2023-03-19T06:39:31.749Z,50.62
2023-03-19T06:40:31.863Z,50.62
2023-03-19T06:41:31.746Z,50.62
2023-03-19T06:42:31.770Z,56.25
2023-03-19T06:43:31.707Z,61.87
2023-03-19T06:44:31.698Z,73.12
2023-03-19T06:46:31.682Z,84.37
2023-03-19T06:47:31.676Z,90.00
2023-03-19T06:48:31.671Z,101.25
2023-03-19T06:49:31.646Z,106.87
2023-03-19T06:50:31.820Z,112.50
2023-03-19T06:51:31.622Z,112.50
2023-03-19T06:52:31.624Z,118.12
2023-03-19T06:53:31.604Z,118.12
2023-03-19T06:54:31.602Z,112.50
2023-03-19T06:55:31.590Z,101.25
2023-03-19T06:56:31.577Z,84.37
2023-03-19T06:57:31.588Z,73.12
2023-03-19T06:58:31.556Z,61.87
2023-03-19T06:59:31.563Z,56.25
2023-03-19T07:00:31.620Z,56.25
2023-03-19T07:01:31.579Z,50.62
2023-03-19T07:02:31.508Z,50.62
2023-03-19T07:03:31.504Z,45.00
2023-03-19T07:04:31.511Z,45.00
2023-03-19T07:06:31.470Z,50.62
2023-03-19T07:07:31.460Z,50.62
2023-03-19T07:08:31.442Z,56.25
2023-03-19T07:09:31.437Z,61.87
2023-03-19T07:10:31.493Z,67.50
2023-03-19T07:11:33.165Z,78.75
2023-03-19T07:12:31.399Z,84.37
2023-03-19T07:13:31.414Z,95.62
2023-03-19T07:14:31.381Z,101.25
2023-03-19T07:15:31.369Z,95.62
2023-03-19T07:17:31.348Z,90.00
2023-03-19T07:18:31.338Z,78.75
2023-03-19T07:19:31.337Z,73.12
2023-03-19T07:20:31.378Z,73.12
2023-03-19T07:21:31.307Z,73.12
2023-03-19T07:23:31.286Z,95.62
2023-03-19T07:24:31.281Z,101.25
2023-03-19T07:25:31.267Z,112.50
2023-03-19T07:26:31.250Z,118.12
2023-03-19T07:28:31.230Z,129.37
2023-03-19T07:29:31.305Z,140.62
2023-03-19T07:30:31.324Z,146.25
2023-03-19T07:31:31.282Z,146.25
2023-03-19T07:32:31.197Z,146.25
2023-03-19T07:33:31.182Z,146.25
2023-03-19T07:34:31.164Z,146.25
2023-03-19T07:35:31.199Z,146.25
2023-03-19T07:36:31.154Z,140.62
2023-03-19T07:37:31.140Z,129.37
2023-03-19T07:38:31.135Z,129.37
2023-03-19T07:39:31.113Z,129.37
2023-03-19T07:40:31.101Z,140.62
2023-03-19T07:41:31.089Z,157.50
2023-03-19T07:42:31.081Z,180.00
2023-03-19T07:43:31.068Z,191.25
2023-03-19T07:44:31.059Z,185.62
2023-03-19T07:45:31.069Z,185.62
2023-03-19T07:46:31.046Z,185.62
2023-03-19T07:47:31.039Z,185.62
2023-03-19T07:48:31.015Z,163.12
2023-03-19T07:49:31.006Z,140.62
2023-03-19T07:50:31.008Z,123.75
2023-03-19T07:51:30.987Z,129.37
2023-03-19T07:52:30.976Z,135.00
2023-03-19T07:54:30.961Z,135.00
2023-03-19T07:55:30.945Z,146.25
2023-03-19T07:56:30.934Z,151.87
2023-03-19T07:57:30.928Z,157.50
2023-03-19T07:58:30.908Z,151.87
2023-03-19T07:59:30.900Z,157.50
2023-03-19T08:00:30.885Z,157.50
2023-03-19T08:01:30.912Z,174.37
2023-03-19T08:02:31.131Z,174.37
2023-03-19T08:03:30.856Z,180.00
2023-03-19T08:05:30.835Z,236.25
2023-03-19T08:06:30.825Z,219.37
2023-03-19T08:07:30.816Z,202.50
2023-03-19T08:08:30.802Z,180.00
2023-03-19T08:09:30.793Z,163.12
2023-03-19T08:11:30.780Z,168.75
2023-03-19T08:12:30.760Z,163.12
2023-03-19T08:13:30.749Z,157.50
2023-03-19T08:14:30.816Z,146.25
2023-03-19T08:15:30.794Z,146.25
2023-03-19T08:16:30.747Z,146.25
2023-03-19T08:17:30.726Z,146.25
2023-03-19T08:18:30.695Z,163.12
2023-03-19T08:19:30.684Z,157.50
2023-03-19T08:20:30.675Z,140.62
2023-03-19T08:21:30.664Z,135.00
2023-03-19T08:22:30.653Z,135.00
2023-03-19T08:23:30.643Z,140.62
2023-03-19T08:25:30.625Z,106.87
2023-03-19T08:26:30.610Z,90.00
2023-03-19T08:27:30.603Z,78.75
2023-03-19T08:28:30.587Z,78.75
2023-03-19T08:30:30.567Z,84.37
2023-03-19T08:31:30.564Z,90.00
2023-03-19T08:32:30.683Z,101.25
2023-03-19T08:33:30.554Z,101.25
2023-03-19T08:34:30.525Z,101.25
2023-03-19T08:35:30.546Z,106.87
2023-03-19T08:36:30.506Z,112.50
2023-03-19T08:37:30.494Z,118.12
2023-03-19T08:38:30.487Z,118.12
2023-03-19T08:39:30.475Z,118.12
2023-03-19T08:40:30.460Z,112.50
2023-03-19T08:41:30.451Z,101.25
2023-03-19T08:42:30.444Z,95.62
2023-03-19T08:43:30.431Z,106.87
2023-03-19T08:44:30.423Z,135.00
2023-03-19T08:45:30.410Z,163.12
2023-03-19T08:46:30.433Z,168.75
2023-03-19T08:47:30.388Z,168.75
2023-03-19T08:48:30.376Z,174.37
2023-03-19T08:49:30.384Z,185.62
2023-03-19T08:50:30.353Z,191.25
2023-03-19T08:51:30.343Z,191.25
2023-03-19T08:52:30.332Z,196.87
2023-03-19T08:53:30.331Z,208.12
2023-03-19T08:55:30.305Z,241.87
2023-03-19T08:56:30.295Z,247.50
2023-03-19T08:57:30.280Z,258.75
2023-03-19T08:59:32.032Z,253.12
2023-03-19T09:00:30.248Z,258.75
2023-03-19T09:02:30.226Z,320.62
2023-03-19T09:04:30.266Z,399.37
2023-03-19T09:05:30.372Z,427.50
2023-03-19T09:06:30.182Z,433.12
2023-03-19T09:09:30.151Z,461.25
2023-03-19T09:10:30.139Z,461.25
2023-03-19T09:11:30.217Z,466.87
2023-03-19T09:12:30.119Z,461.25
2023-03-19T09:13:30.110Z,438.75
2023-03-19T09:14:30.096Z,427.50
2023-03-19T09:15:30.090Z,444.37
2023-03-19T09:16:30.191Z,472.50
2023-03-19T09:17:30.068Z,511.87
2023-03-19T09:18:30.054Z,551.25
2023-03-19T09:19:30.044Z,556.87
2023-03-19T09:20:30.032Z,573.75
2023-03-19T09:21:30.042Z,585.00
2023-03-19T09:22:30.011Z,601.87
2023-03-19T09:23:30.004Z,630.00
2023-03-19T09:24:29.994Z,658.12
2023-03-19T09:25:29.981Z,680.62
2023-03-19T09:26:29.975Z,714.37
2023-03-19T09:28:29.951Z,821.25
2023-03-19T09:29:29.939Z,871.87
2023-03-19T09:30:29.927Z,928.12
2023-03-19T09:31:30.175Z,978.75
2023-03-19T09:32:29.907Z,1096.87
2023-03-19T09:33:29.897Z,961.87
2023-03-19T09:34:29.887Z,961.87
2023-03-19T09:35:29.879Z,973.12
2023-03-19T09:36:29.867Z,984.37
2023-03-19T09:37:29.875Z,990.00
2023-03-19T09:38:29.847Z,984.37
2023-03-19T09:39:29.837Z,950.62
2023-03-19T09:40:29.824Z,916.87
2023-03-19T09:41:29.817Z,883.12
2023-03-19T09:42:29.805Z,871.87
2023-03-19T09:43:29.796Z,911.25
2023-03-19T09:44:29.792Z,967.50
2023-03-19T09:45:29.789Z,1006.87
2023-03-19T09:46:29.803Z,1023.75
2023-03-19T09:47:29.749Z,1001.25
2023-03-19T09:48:29.734Z,967.50
2023-03-19T09:49:29.726Z,888.75
2023-03-19T09:50:29.725Z,815.62
2023-03-19T09:51:29.705Z,748.12
2023-03-19T09:52:29.693Z,720.00
2023-03-19T09:55:29.662Z,686.25
2023-03-19T09:56:29.650Z,669.37
2023-03-19T09:57:29.641Z,658.12
2023-03-19T09:58:29.628Z,652.50
2023-03-19T09:59:29.622Z,658.12
2023-03-19T10:00:29.608Z,680.62
2023-03-19T10:01:29.642Z,691.87
2023-03-19T10:02:29.584Z,708.75
2023-03-19T10:03:29.575Z,731.25
2023-03-19T10:05:29.554Z,765.00
2023-03-19T10:06:29.566Z,776.25
2023-03-19T10:07:29.538Z,804.37
2023-03-19T10:08:29.523Z,832.50
2023-03-19T10:09:29.527Z,866.25
2023-03-19T10:10:29.508Z,922.50
2023-03-19T10:11:29.492Z,911.25
2023-03-19T10:12:29.499Z,849.37
2023-03-19T10:13:29.466Z,860.62
2023-03-19T10:14:29.454Z,815.62
2023-03-19T10:16:29.465Z,883.12
2023-03-19T10:17:29.422Z,900.00
2023-03-19T10:18:29.413Z,973.12
2023-03-19T10:19:29.512Z,871.87
2023-03-19T10:20:29.401Z,843.75
2023-03-19T10:21:29.379Z,883.12
2023-03-19T10:22:29.369Z,736.87
2023-03-19T10:23:29.356Z,585.00
2023-03-19T10:24:29.345Z,466.87
2023-03-19T10:25:29.354Z,433.12
2023-03-19T10:26:29.326Z,438.75
2023-03-19T10:27:29.324Z,478.12
2023-03-19T10:28:29.308Z,517.50
2023-03-19T10:30:29.284Z,523.12
2023-03-19T10:31:29.339Z,517.50
2023-03-19T10:32:29.259Z,511.87
2023-03-19T10:33:29.251Z,511.87
2023-03-19T10:34:29.238Z,500.62
2023-03-19T10:35:29.230Z,545.62
2023-03-19T10:36:29.217Z,630.00
2023-03-19T10:37:29.208Z,658.12
2023-03-19T10:38:29.198Z,652.50
2023-03-19T10:39:29.195Z,613.12
2023-03-19T10:40:29.174Z,551.25
2023-03-19T10:42:31.263Z,613.12
2023-03-19T10:43:29.152Z,652.50
2023-03-19T10:46:29.157Z,787.50
2023-03-19T10:48:29.094Z,568.12
2023-03-19T10:49:29.085Z,562.50
2023-03-19T10:50:29.069Z,624.37
2023-03-19T10:51:29.056Z,618.75
2023-03-19T10:52:29.052Z,590.62
2023-03-19T10:53:29.039Z,646.87
2023-03-19T10:54:29.024Z,793.12
2023-03-19T10:55:29.014Z,888.75
2023-03-19T10:56:29.006Z,843.75
2023-03-19T10:57:29.011Z,742.50
2023-03-19T10:58:29.001Z,680.62
2023-03-19T10:59:28.974Z,742.50
2023-03-19T11:00:28.959Z,765.00
2023-03-19T11:01:29.078Z,753.75
2023-03-19T11:02:28.939Z,826.87
2023-03-19T11:03:29.003Z,888.75
2023-03-19T11:04:28.921Z,736.87
2023-03-19T11:05:31.673Z,568.12
2023-03-19T11:06:28.895Z,489.37
2023-03-19T11:09:29.893Z,556.87
2023-03-19T11:11:28.847Z,635.62
2023-03-19T11:12:28.841Z,658.12
2023-03-19T11:13:28.842Z,658.12
2023-03-19T11:14:28.810Z,646.87
2023-03-19T11:15:28.800Z,618.75
2023-03-19T11:16:28.825Z,607.50
2023-03-19T11:17:28.781Z,596.25
2023-03-19T11:18:28.771Z,585.00
2023-03-19T11:19:28.753Z,573.75
2023-03-19T11:20:28.745Z,568.12
2023-03-19T11:22:28.722Z,551.25
2023-03-19T11:24:28.701Z,517.50
2023-03-19T11:25:28.708Z,523.12
2023-03-19T11:26:28.698Z,523.12
2023-03-19T11:27:28.704Z,528.75
2023-03-19T11:28:28.677Z,534.37
2023-03-19T11:29:28.667Z,540.00
2023-03-19T11:30:28.638Z,534.37
2023-03-19T11:32:28.658Z,528.75
2023-03-19T11:33:28.603Z,562.50
2023-03-19T11:34:28.594Z,540.00
2023-03-19T11:35:28.582Z,517.50
2023-03-19T11:36:28.573Z,500.62
2023-03-19T11:37:28.643Z,506.25
2023-03-19T11:38:28.555Z,466.87
2023-03-19T11:39:28.552Z,438.75
2023-03-19T11:41:28.516Z,421.87
2023-03-19T11:42:28.510Z,399.37
2023-03-19T11:43:28.502Z,376.87
2023-03-19T11:44:28.488Z,354.37
2023-03-19T11:45:28.496Z,326.25
2023-03-19T11:46:28.535Z,309.37
2023-03-19T11:47:28.454Z,286.87
2023-03-19T11:49:28.434Z,247.50
2023-03-19T11:50:28.426Z,236.25
2023-03-19T11:51:28.419Z,225.00
2023-03-19T11:52:28.409Z,213.75
2023-03-19T11:53:28.394Z,208.12
2023-03-19T11:54:28.385Z,202.50
2023-03-19T11:55:28.376Z,202.50
2023-03-19T11:56:28.367Z,208.12
2023-03-19T11:57:28.352Z,208.12
2023-03-19T11:58:28.344Z,208.12
2023-03-19T11:59:28.332Z,213.75
2023-03-19T12:00:28.321Z,213.75
2023-03-19T12:01:28.327Z,219.37
2023-03-19T12:02:28.387Z,219.37
2023-03-19T12:03:28.346Z,225.00
2023-03-19T12:04:28.280Z,236.25
2023-03-19T12:05:28.268Z,247.50
2023-03-19T12:06:28.258Z,258.75
2023-03-19T12:08:28.237Z,298.12
2023-03-19T12:11:28.210Z,331.87
2023-03-19T12:12:28.200Z,343.12
2023-03-19T12:13:28.183Z,360.00
2023-03-19T12:14:28.174Z,382.50
2023-03-19T12:15:28.180Z,410.62
2023-03-19T12:16:28.182Z,466.87
2023-03-19T12:17:30.256Z,545.62
2023-03-19T12:18:28.133Z,641.25
2023-03-19T12:19:28.123Z,742.50
2023-03-19T12:20:28.109Z,838.12
2023-03-19T12:21:28.097Z,933.75
2023-03-19T12:22:28.089Z,1080.00
2023-03-19T12:23:28.075Z,2143.12
2023-03-19T12:24:28.067Z,3633.75
2023-03-19T12:25:28.055Z,3864.37
2023-03-19T12:26:28.047Z,4010.62
2023-03-19T12:27:28.046Z,4010.62
2023-03-19T12:28:28.025Z,4038.75
2023-03-19T12:29:28.012Z,4106.25
2023-03-19T12:30:28.002Z,4145.62
2023-03-19T12:31:28.046Z,4252.50
2023-03-19T12:33:27.982Z,4258.12
2023-03-19T12:34:27.957Z,4275.00
2023-03-19T12:35:27.944Z,4280.62
2023-03-19T12:36:27.937Z,4258.12
2023-03-19T12:37:27.929Z,1260.00
2023-03-19T12:38:27.914Z,3971.25
2023-03-19T12:39:27.902Z,2913.75
2023-03-19T12:41:27.880Z,3774.37
2023-03-19T12:42:27.871Z,2182.50
2023-03-19T12:43:27.875Z,1929.37
2023-03-19T12:44:27.851Z,1845.00
2023-03-19T12:45:27.836Z,1687.50
2023-03-19T12:47:27.818Z,4651.87
2023-03-19T12:48:27.825Z,4696.87
2023-03-19T12:49:27.830Z,3015.00
2023-03-19T12:50:27.785Z,2728.12
2023-03-19T12:51:27.774Z,1620.00
2023-03-19T12:52:27.764Z,1653.75
2023-03-19T12:54:27.743Z,1383.75
2023-03-19T12:55:27.733Z,1316.25
2023-03-19T12:56:27.721Z,1361.25
2023-03-19T12:57:27.708Z,1366.87
2023-03-19T12:58:27.701Z,1372.50
2023-03-19T12:59:27.687Z,1586.25
2023-03-19T13:00:27.684Z,1321.87
2023-03-19T13:01:27.699Z,1136.25
2023-03-19T13:02:27.822Z,1018.12
2023-03-19T13:03:27.645Z,956.25
2023-03-19T13:04:27.758Z,911.25
2023-03-19T13:05:27.647Z,894.37
2023-03-19T13:07:27.606Z,793.12
2023-03-19T13:08:27.597Z,759.37
2023-03-19T13:09:27.582Z,753.75
2023-03-19T13:10:27.573Z,736.87
2023-03-19T13:11:27.563Z,680.62
2023-03-19T13:12:27.563Z,618.75
2023-03-19T13:13:30.542Z,590.62
2023-03-19T13:14:27.530Z,562.50
2023-03-19T13:15:27.529Z,562.50
2023-03-19T13:16:27.528Z,601.87
2023-03-19T13:17:27.502Z,630.00
2023-03-19T13:18:27.488Z,669.37
2023-03-19T13:19:27.474Z,703.12
2023-03-19T13:20:27.469Z,765.00
2023-03-19T13:21:27.474Z,826.87
2023-03-19T13:22:27.451Z,877.50
2023-03-19T13:23:27.438Z,866.25
2023-03-19T13:24:27.424Z,843.75
2023-03-19T13:25:27.418Z,815.62
2023-03-19T13:26:27.403Z,781.87
2023-03-19T13:27:27.400Z,748.12
2023-03-19T13:28:27.381Z,725.62
2023-03-19T13:29:27.371Z,725.62
2023-03-19T13:30:27.363Z,742.50
2023-03-19T13:31:27.450Z,776.25
2023-03-19T13:32:27.339Z,821.25
2023-03-19T13:33:27.326Z,928.12
2023-03-19T13:34:27.325Z,1175.62
2023-03-19T13:35:27.325Z,1153.12
2023-03-19T13:36:27.295Z,1091.25
2023-03-19T13:37:27.302Z,1096.87
2023-03-19T13:38:27.275Z,1091.25
2023-03-19T13:39:27.263Z,1080.00
2023-03-19T13:40:27.254Z,1102.50
2023-03-19T13:41:27.239Z,1158.75
2023-03-19T13:42:27.230Z,1321.87
2023-03-19T13:43:28.606Z,1186.87
2023-03-19T13:44:27.207Z,1113.75
2023-03-19T13:45:27.198Z,1080.00
2023-03-19T13:46:27.216Z,1074.37
2023-03-19T13:47:27.181Z,1102.50
2023-03-19T13:48:27.167Z,1175.62
2023-03-19T13:49:27.152Z,1327.50
2023-03-19T13:50:27.186Z,1940.62
2023-03-19T13:51:27.133Z,3583.12
2023-03-19T13:52:27.123Z,3172.50
2023-03-19T13:53:27.129Z,3380.62
2023-03-19T13:55:27.087Z,3054.37
2023-03-19T13:56:30.254Z,3425.62
2023-03-19T13:57:27.069Z,2919.37
2023-03-19T13:58:27.056Z,2604.37
2023-03-19T13:59:27.178Z,2244.37
2023-03-19T14:00:27.039Z,2598.75
2023-03-19T14:01:27.022Z,1513.12
2023-03-19T14:02:27.011Z,1175.62
2023-03-19T14:04:26.994Z,1147.50
2023-03-19T14:05:26.981Z,1265.62
2023-03-19T14:06:27.003Z,1485.00
2023-03-19T14:07:26.961Z,1811.25
2023-03-19T14:08:26.951Z,1631.25
2023-03-19T14:09:26.958Z,1912.50
2023-03-19T14:10:26.939Z,1833.75
2023-03-19T14:11:26.916Z,2227.50
2023-03-19T14:13:26.896Z,2790.00
2023-03-19T14:14:26.888Z,2559.37
2023-03-19T14:15:26.880Z,2885.62
2023-03-19T14:16:26.948Z,1912.50
2023-03-19T14:17:27.438Z,3442.50
2023-03-19T14:22:26.802Z,3110.62
2023-03-19T14:23:38.370Z,3054.37
2023-03-19T14:24:58.061Z,1771.87
2023-03-19T14:25:27.817Z,1018.12
2023-03-19T14:26:26.759Z,900.00
2023-03-19T14:27:26.750Z,1884.37
2023-03-19T14:28:26.736Z,2413.12
2023-03-19T14:29:26.734Z,1141.87
2023-03-19T14:30:26.718Z,1147.50
2023-03-19T14:31:26.821Z,2120.62
2023-03-19T14:32:26.694Z,2986.87
2023-03-19T14:34:26.673Z,2795.62
2023-03-19T14:35:26.669Z,2649.37
2023-03-19T14:36:26.653Z,2728.12
2023-03-19T14:37:26.641Z,1636.87
2023-03-19T14:38:26.634Z,911.25
2023-03-19T14:39:26.621Z,911.25
2023-03-19T14:40:26.608Z,736.87
2023-03-19T14:41:26.620Z,641.25
2023-03-19T14:42:26.598Z,545.62
2023-03-19T14:43:26.576Z,483.75
2023-03-19T14:44:26.572Z,444.37
2023-03-19T14:45:26.676Z,421.87
2023-03-19T14:46:26.548Z,405.00
2023-03-19T14:47:26.535Z,393.75
2023-03-19T14:48:26.535Z,388.12
2023-03-19T14:49:26.514Z,382.50
2023-03-19T14:50:26.505Z,376.87
2023-03-19T14:51:26.492Z,371.25
2023-03-19T14:52:26.484Z,365.62
2023-03-19T14:53:26.470Z,365.62
2023-03-19T14:55:26.451Z,388.12
2023-03-19T14:56:26.443Z,393.75
2023-03-19T14:57:26.451Z,388.12
2023-03-19T14:58:26.419Z,376.87
2023-03-19T14:59:26.407Z,360.00
2023-03-19T15:00:26.398Z,343.12
2023-03-19T15:01:26.432Z,326.25
2023-03-19T15:02:26.386Z,315.00
2023-03-19T15:03:26.380Z,303.75
2023-03-19T15:04:26.445Z,286.87
2023-03-19T15:07:26.334Z,241.87
2023-03-19T15:08:26.316Z,225.00
2023-03-19T15:10:26.292Z,196.87
2023-03-19T15:11:26.281Z,185.62
2023-03-19T15:12:26.278Z,174.37
2023-03-19T15:13:26.284Z,163.12
2023-03-19T15:14:26.252Z,151.87
2023-03-19T15:15:26.237Z,146.25
2023-03-19T15:16:26.275Z,140.62
2023-03-19T15:17:26.225Z,135.00
2023-03-19T15:18:26.205Z,129.37
2023-03-19T15:19:26.192Z,123.75
2023-03-19T15:20:26.189Z,118.12
2023-03-19T15:21:26.172Z,118.12
2023-03-19T15:22:26.161Z,112.50
2023-03-19T15:23:27.906Z,106.87
2023-03-19T15:24:26.143Z,101.25
2023-03-19T15:25:26.139Z,101.25
2023-03-19T15:26:26.122Z,95.62
2023-03-19T15:27:26.110Z,95.62
2023-03-19T15:28:26.099Z,95.62
2023-03-19T15:29:26.110Z,90.00
2023-03-19T15:30:26.080Z,90.00
2023-03-19T15:31:33.372Z,90.00
2023-03-19T15:32:48.320Z,90.00
2023-03-19T15:33:39.000Z,95.62
2023-03-19T15:34:27.176Z,95.62
2023-03-19T15:35:26.034Z,95.62
2023-03-19T15:36:26.015Z,95.62
2023-03-19T15:38:25.995Z,95.62
2023-03-19T15:39:25.984Z,101.25
2023-03-19T15:40:25.968Z,101.25
2023-03-19T15:41:25.959Z,106.87
2023-03-19T15:42:25.948Z,106.87
2023-03-19T15:43:25.937Z,112.50
2023-03-19T15:44:25.924Z,118.12
2023-03-19T15:45:25.936Z,118.12
2023-03-19T15:46:25.926Z,123.75
2023-03-19T15:47:25.908Z,123.75
2023-03-19T15:48:25.885Z,129.37
2023-03-19T15:49:25.873Z,135.00
2023-03-19T15:50:25.880Z,135.00
2023-03-19T15:51:25.852Z,135.00
2023-03-19T15:52:25.837Z,140.62
2023-03-19T15:53:25.829Z,151.87
2023-03-19T15:54:25.869Z,157.50
2023-03-19T15:55:25.808Z,151.87
2023-03-19T15:56:25.797Z,163.12
2023-03-19T15:57:25.788Z,163.12
2023-03-19T15:58:25.784Z,168.75
2023-03-19T15:59:25.765Z,180.00
2023-03-19T16:00:25.751Z,196.87
2023-03-19T16:01:25.871Z,208.12
2023-03-19T16:02:25.781Z,213.75
2023-03-19T16:03:25.725Z,213.75
2023-03-19T16:04:25.707Z,213.75
2023-03-19T16:05:25.697Z,219.37
2023-03-19T16:06:27.181Z,225.00
2023-03-19T16:07:25.694Z,236.25
2023-03-19T16:08:25.662Z,241.87
2023-03-19T16:10:25.648Z,258.75
2023-03-19T16:11:25.633Z,270.00
2023-03-19T16:12:25.624Z,281.25
2023-03-19T16:13:25.727Z,286.87
2023-03-19T16:14:25.618Z,286.87
2023-03-19T16:15:25.588Z,286.87
2023-03-19T16:16:25.660Z,275.62
2023-03-19T16:17:25.733Z,258.75
2023-03-19T16:18:25.552Z,241.87
2023-03-19T16:19:25.545Z,225.00
2023-03-19T16:21:25.530Z,191.25
2023-03-19T16:22:25.525Z,180.00
2023-03-19T16:23:25.498Z,168.75
2023-03-19T16:24:25.486Z,163.12
2023-03-19T16:25:25.502Z,151.87
2023-03-19T16:26:25.462Z,140.62
2023-03-19T16:27:25.454Z,129.37
2023-03-19T16:28:25.481Z,123.75
2023-03-19T16:29:25.431Z,118.12
2023-03-19T16:30:25.500Z,118.12
2023-03-19T16:31:25.496Z,112.50
2023-03-19T16:32:25.407Z,106.87
2023-03-19T16:33:25.408Z,101.25
2023-03-19T16:34:25.380Z,101.25
2023-03-19T16:35:25.365Z,95.62
2023-03-19T16:36:25.351Z,95.62
2023-03-19T16:37:25.341Z,95.62
2023-03-19T16:38:25.327Z,95.62
2023-03-19T16:39:25.324Z,90.00
2023-03-19T16:40:25.344Z,90.00
2023-03-19T16:41:25.305Z,90.00
2023-03-19T16:42:25.286Z,90.00
2023-03-19T16:43:25.276Z,84.37
2023-03-19T16:45:25.255Z,78.75
2023-03-19T16:46:25.266Z,78.75
2023-03-19T16:47:25.255Z,73.12
2023-03-19T16:48:25.226Z,67.50
2023-03-19T16:49:25.237Z,61.87
2023-03-19T16:50:25.203Z,61.87
2023-03-19T16:51:25.191Z,56.25
2023-03-19T16:52:25.179Z,50.62
2023-03-19T16:53:25.171Z,50.62
2023-03-19T16:54:25.159Z,45.00
2023-03-19T16:55:25.151Z,45.00
2023-03-19T16:57:25.140Z,39.37
2023-03-19T16:58:25.119Z,39.37
2023-03-19T17:00:25.097Z,33.75
2023-03-19T17:01:25.137Z,33.75
2023-03-19T17:02:25.078Z,33.75
2023-03-19T17:03:25.066Z,28.12
2023-03-19T17:04:25.078Z,28.12
2023-03-19T17:05:25.068Z,28.12
2023-03-19T17:06:25.048Z,22.50
2023-03-19T17:07:25.025Z,22.50
2023-03-19T17:08:25.013Z,22.50
2023-03-19T17:09:25.004Z,16.87
2023-03-19T17:10:24.995Z,16.87
2023-03-19T17:11:24.999Z,16.87
2023-03-19T17:12:24.973Z,16.87
2023-03-19T17:13:24.963Z,16.87
2023-03-19T17:14:24.950Z,16.87
2023-03-19T17:15:24.944Z,16.87
2023-03-19T17:16:24.945Z,16.87
2023-03-19T17:17:24.921Z,22.50
2023-03-19T17:18:24.911Z,22.50
2023-03-19T17:19:24.918Z,22.50
2023-03-19T17:20:24.891Z,22.50
2023-03-19T17:21:24.900Z,22.50
2023-03-19T17:24:24.842Z,22.50
2023-03-19T17:26:24.821Z,16.87
2023-03-19T17:27:24.814Z,16.87
2023-03-19T17:28:24.802Z,16.87
2023-03-19T17:29:24.804Z,16.87
2023-03-19T17:30:26.500Z,11.25
2023-03-19T17:31:24.896Z,11.25
2023-03-19T17:32:24.763Z,11.25
2023-03-19T17:33:24.751Z,11.25
2023-03-19T17:34:24.738Z,11.25
2023-03-19T17:35:24.732Z,5.62
2023-03-19T17:36:24.720Z,5.62
2023-03-19T17:38:24.698Z,5.62
2023-03-19T17:40:24.685Z,5.62
2023-03-19T17:41:24.679Z,5.62
2023-03-19T17:42:24.655Z,5.62
2023-03-19T17:43:24.654Z,0.00
2023-03-19T17:44:24.636Z,0.00
2023-03-19T17:45:24.629Z,0.00
2023-03-19T17:46:24.698Z,0.00
2023-03-19T17:47:24.605Z,0.00
2023-03-19T17:48:24.595Z,0.00
2023-03-19T17:49:24.591Z,0.00
2023-03-19T17:50:24.571Z,0.00
2023-03-19T17:51:24.563Z,0.00
2023-03-19T17:52:24.549Z,0.00
2023-03-19T17:53:24.561Z,0.00
2023-03-19T17:54:24.525Z,0.00
2023-03-19T17:55:24.548Z,0.00
2023-03-19T17:57:24.500Z,0.00
2023-03-19T17:58:24.488Z,0.00
2023-03-19T17:59:24.479Z,0.00
2023-03-19T18:01:24.602Z,0.00
2023-03-19T18:02:24.448Z,0.00
2023-03-19T18:03:24.437Z,0.00
2023-03-19T18:04:24.502Z,0.00
2023-03-19T18:05:24.420Z,0.00
2023-03-19T18:07:24.398Z,0.00
2023-03-19T18:08:24.383Z,0.00
